Time;durP1;ratioP1;P1;durP2;ratioP2;P2;SDS_P1;SDS_P2;PMS_P1;PMS_P2;Temp;Humidity;BMP_temperature;BMP_pressure;BME280_temperature;BME280_humidity;BME280_pressure;Samples;Min_cycle;Max_cycle;Signal;HPM_P1;HPM_P2
2022/04/11 00:01:47;;;;;;;12.63;6.65;;;;;;;;;;5020857;28;20547;-72
2022/04/11 00:04:33;;;;;;;10.25;5.85;;;;;;;;;;5022041;28;20038;-70
2022/04/11 00:07:18;;;;;;;11.88;6.53;;;;;;;;;;4991023;28;20041;-69
2022/04/11 00:10:03;;;;;;;9.88;6.13;;;;;;;;;;4977331;28;20034;-69
2022/04/11 00:12:49;;;;;;;9.93;6.13;;;;;;;;;;4993969;28;20451;-72
2022/04/11 00:15:34;;;;;;;10.77;6.68;;;;;;;;;;5022436;28;20030;-62
2022/04/11 00:18:19;;;;;;;9.98;5.85;;;;;;;;;;5008320;28;20025;-70
2022/04/11 00:21:04;;;;;;;10.02;6.22;;;;;;;;;;4993773;28;20381;-69
2022/04/11 00:23:50;;;;;;;14.80;6.72;;;;;;;;;;5017340;28;20440;-72
2022/04/11 00:26:35;;;;;;;8.55;6.05;;;;;;;;;;5033240;28;20038;-68
2022/04/11 00:29:20;;;;;;;11.38;6.30;;;;;;;;;;4981201;28;20068;-69
2022/04/11 00:32:06;;;;;;;11.75;5.88;;;;;;;;;;5017800;28;20277;-70
2022/04/11 00:34:51;;;;;;;11.10;5.93;;;;;;;;;;4997071;28;20528;-71
2022/04/11 00:37:37;;;;;;;12.68;6.13;;;;;;;;;;5006879;28;20043;-63
2022/04/11 00:40:22;;;;;;;9.35;5.93;;;;;;;;;;5005606;28;20029;-62
2022/04/11 00:43:07;;;;;;;13.07;5.60;;;;;;;;;;4993726;28;20116;-63
2022/04/11 00:45:53;;;;;;;8.82;5.63;;;;;;;;;;4993909;28;20053;-62
2022/04/11 00:48:40;;;;;;;11.30;6.35;;;;;;;;;;5005384;28;20036;-65
2022/04/11 00:51:26;;;;;;;13.88;6.45;;;;;;;;;;5032640;28;20022;-72
2022/04/11 00:54:11;;;;;;;11.50;6.18;;;;;;;;;;5006507;28;20534;-71
2022/04/11 00:56:57;;;;;;;12.07;6.80;;;;;;;;;;5008162;28;20034;-73
2022/04/11 00:59:43;;;;;;;10.02;6.45;;;;;;;;;;4989933;28;20416;-70
2022/04/11 01:02:28;;;;;;;9.05;5.85;;;;;;;;;;4999130;28;20052;-72
2022/04/11 01:05:13;;;;;;;8.88;5.75;;;;;;;;;;5003714;28;20061;-74
2022/04/11 01:08:02;;;;;;;11.20;6.28;;;;;;;;;;4986028;28;20064;-71
2022/04/11 01:10:48;;;;;;;12.38;5.88;;;;;;;;;;5025999;28;20064;-70
2022/04/11 01:13:34;;;;;;;10.68;6.55;;;;;;;;;;5025246;28;20030;-62
2022/04/11 01:16:26;;;;;;;10.27;5.53;;;;;;;;;;5025312;28;20108;-62
2022/04/11 01:19:11;;;;;;;11.30;6.70;;;;;;;;;;5005345;28;20042;-62
2022/04/11 01:21:56;;;;;;;16.88;6.65;;;;;;;;;;5029429;28;20072;-64
2022/04/11 01:24:42;;;;;;;14.18;7.18;;;;;;;;;;4997047;28;20121;-62
2022/04/11 01:27:27;;;;;;;10.02;5.93;;;;;;;;;;4979220;28;20505;-62
2022/04/11 01:30:14;;;;;;;10.70;6.43;;;;;;;;;;4978647;28;20027;-67
2022/04/11 01:32:59;;;;;;;12.05;7.03;;;;;;;;;;4998926;28;20103;-70
2022/04/11 01:35:45;;;;;;;10.80;5.90;;;;;;;;;;4992953;28;20042;-71
2022/04/11 01:38:30;;;;;;;11.57;6.95;;;;;;;;;;4999239;28;20434;-70
2022/04/11 01:41:15;;;;;;;9.27;6.15;;;;;;;;;;4984707;28;20054;-71
2022/04/11 01:44:00;;;;;;;8.93;5.60;;;;;;;;;;4985750;28;20486;-70
2022/04/11 01:46:46;;;;;;;10.05;5.85;;;;;;;;;;4969525;28;20046;-68
2022/04/11 01:49:31;;;;;;;11.90;6.93;;;;;;;;;;4984542;28;20056;-71
2022/04/11 01:52:17;;;;;;;10.40;6.35;;;;;;;;;;4989773;28;20050;-71
2022/04/11 01:55:03;;;;;;;10.13;6.60;;;;;;;;;;4987574;28;20054;-71
2022/04/11 01:57:48;;;;;;;8.55;5.53;;;;;;;;;;4958486;28;20042;-70
2022/04/11 02:00:34;;;;;;;10.15;5.97;;;;;;;;;;4970629;28;20093;-71
2022/04/11 02:03:19;;;;;;;12.07;6.50;;;;;;;;;;4985943;28;20089;-70
2022/04/11 02:06:05;;;;;;;10.85;6.22;;;;;;;;;;4984440;28;20093;-67
2022/04/11 02:08:50;;;;;;;10.88;5.95;;;;;;;;;;4985074;28;20076;-63
2022/04/11 02:11:35;;;;;;;13.88;7.88;;;;;;;;;;4982930;28;20478;-63
2022/04/11 02:14:20;;;;;;;11.02;6.63;;;;;;;;;;4986323;28;20029;-61
2022/04/11 02:17:05;;;;;;;12.40;6.93;;;;;;;;;;4982443;28;20481;-62
2022/04/11 02:19:51;;;;;;;10.52;6.55;;;;;;;;;;4997956;28;20027;-63
2022/04/11 02:22:46;;;;;;;10.90;6.82;;;;;;;;;;4986142;28;20270;-62
2022/04/11 02:25:32;;;;;;;11.43;6.95;;;;;;;;;;5009537;28;20460;-74
2022/04/11 02:28:17;;;;;;;9.07;5.57;;;;;;;;;;5010124;28;20070;-69
2022/04/11 02:31:02;;;;;;;13.85;7.03;;;;;;;;;;5009961;28;20405;-69
2022/04/11 02:33:48;;;;;;;8.93;6.40;;;;;;;;;;4996164;28;20018;-70
2022/04/11 02:36:33;;;;;;;12.52;7.53;;;;;;;;;;4995523;28;20385;-70
2022/04/11 02:39:18;;;;;;;9.65;6.38;;;;;;;;;;4995740;28;20058;-69
2022/04/11 02:42:03;;;;;;;12.75;6.80;;;;;;;;;;4995665;28;20054;-71
2022/04/11 02:44:49;;;;;;;11.98;6.93;;;;;;;;;;4997248;28;20018;-65
2022/04/11 02:47:34;;;;;;;13.15;6.78;;;;;;;;;;4994782;28;20397;-63
2022/04/11 02:50:19;;;;;;;12.82;6.88;;;;;;;;;;5021108;28;20404;-66
2022/04/11 02:53:05;;;;;;;13.50;6.88;;;;;;;;;;5000021;28;20022;-62
2022/04/11 02:55:50;;;;;;;10.90;6.47;;;;;;;;;;4999477;28;20037;-65
2022/04/11 02:58:35;;;;;;;11.55;7.18;;;;;;;;;;5021717;28;20045;-64
2022/04/11 03:01:20;;;;;;;10.75;7.05;;;;;;;;;;5023159;28;20500;-76
2022/04/11 03:04:07;;;;;;;13.50;7.57;;;;;;;;;;4994906;28;20044;-69
2022/04/11 03:06:53;;;;;;;11.18;8.00;;;;;;;;;;4997172;28;20022;-71
2022/04/11 03:09:38;;;;;;;15.90;7.82;;;;;;;;;;5008787;28;20033;-69
2022/04/11 03:12:24;;;;;;;10.38;6.63;;;;;;;;;;4995665;28;20026;-70
2022/04/11 03:15:10;;;;;;;9.82;7.25;;;;;;;;;;4972681;28;20044;-71
2022/04/11 03:17:55;;;;;;;11.05;6.85;;;;;;;;;;4994602;28;20473;-69
2022/04/11 03:20:40;;;;;;;11.75;7.18;;;;;;;;;;4992747;28;20033;-72
2022/04/11 03:23:25;;;;;;;12.70;7.07;;;;;;;;;;5021535;28;20046;-69
2022/04/11 03:26:11;;;;;;;14.43;7.90;;;;;;;;;;5019678;28;20280;-69
2022/04/11 03:28:56;;;;;;;10.27;7.28;;;;;;;;;;5021729;28;20030;-71
2022/04/11 03:31:41;;;;;;;11.63;6.93;;;;;;;;;;4994742;28;20029;-71
2022/04/11 03:34:26;;;;;;;10.35;7.22;;;;;;;;;;4993860;28;20092;-71
2022/04/11 03:37:12;;;;;;;16.35;8.27;;;;;;;;;;5022301;28;20566;-73
2022/04/11 03:39:57;;;;;;;11.05;7.50;;;;;;;;;;4994831;28;20038;-69
2022/04/11 03:42:42;;;;;;;12.13;7.38;;;;;;;;;;4994923;28;20487;-74
2022/04/11 03:45:27;;;;;;;10.13;6.85;;;;;;;;;;5001747;28;20026;-72
2022/04/11 03:48:13;;;;;;;13.00;7.68;;;;;;;;;;4986972;28;20492;-70
2022/04/11 03:50:58;;;;;;;11.57;7.80;;;;;;;;;;5003598;28;20042;-70
2022/04/11 03:53:43;;;;;;;15.02;7.10;;;;;;;;;;5010748;28;20433;-71
2022/04/11 03:56:28;;;;;;;11.05;7.68;;;;;;;;;;5011841;28;20040;-68
2022/04/11 03:59:14;;;;;;;11.00;7.05;;;;;;;;;;4994823;28;20054;-68
2022/04/11 04:01:59;;;;;;;12.18;7.45;;;;;;;;;;4992885;28;20509;-68
2022/04/11 04:04:44;;;;;;;14.50;8.18;;;;;;;;;;5019426;28;20022;-69
2022/04/11 04:07:29;;;;;;;14.30;8.18;;;;;;;;;;4992424;28;20523;-68
2022/04/11 04:10:15;;;;;;;10.25;7.20;;;;;;;;;;4980560;28;20245;-69
2022/04/11 04:13:00;;;;;;;11.93;7.65;;;;;;;;;;4992288;28;20552;-68
2022/04/11 04:15:45;;;;;;;13.98;7.28;;;;;;;;;;4992453;28;20433;-72
2022/04/11 04:18:31;;;;;;;14.60;8.02;;;;;;;;;;5011577;28;20058;-71
2022/04/11 04:21:18;;;;;;;11.13;6.95;;;;;;;;;;5006398;28;20025;-73
2022/04/11 04:24:08;;;;;;;9.93;6.45;;;;;;;;;;5005290;28;20041;-71
2022/04/11 04:26:53;;;;;;;11.98;7.22;;;;;;;;;;4984931;28;20050;-69
2022/04/11 04:29:38;;;;;;;11.60;6.90;;;;;;;;;;5014764;28;20041;-72
2022/04/11 04:32:23;;;;;;;14.40;7.32;;;;;;;;;;4987226;28;20697;-67
2022/04/11 04:35:09;;;;;;;11.60;7.63;;;;;;;;;;4985119;28;20022;-69
2022/04/11 04:37:54;;;;;;;13.70;7.45;;;;;;;;;;4987795;28;20038;-62
2022/04/11 04:40:40;;;;;;;12.18;6.93;;;;;;;;;;4988483;28;20033;-62
2022/04/11 04:43:25;;;;;;;11.95;7.53;;;;;;;;;;4987638;28;20049;-64
2022/04/11 04:46:10;;;;;;;11.32;7.78;;;;;;;;;;5000550;28;20036;-63
2022/04/11 04:48:57;;;;;;;12.75;7.70;;;;;;;;;;4985702;28;20070;-62
2022/04/11 04:51:42;;;;;;;11.38;7.53;;;;;;;;;;5000483;28;20493;-71
2022/04/11 04:54:27;;;;;;;12.93;7.18;;;;;;;;;;5001799;28;20029;-72
2022/04/11 04:57:13;;;;;;;14.50;7.22;;;;;;;;;;4985646;28;20124;-72
2022/04/11 04:59:58;;;;;;;14.48;8.00;;;;;;;;;;5001891;28;20030;-70
2022/04/11 05:02:43;;;;;;;12.05;7.35;;;;;;;;;;4986569;28;20049;-70
2022/04/11 05:05:28;;;;;;;12.70;7.28;;;;;;;;;;5001726;28;20414;-73
2022/04/11 05:08:14;;;;;;;12.02;7.25;;;;;;;;;;4987864;28;20030;-71
2022/04/11 05:10:59;;;;;;;13.15;7.40;;;;;;;;;;5013422;28;20030;-71
2022/04/11 05:13:45;;;;;;;12.32;8.15;;;;;;;;;;5001408;28;20112;-62
2022/04/11 05:16:30;;;;;;;14.70;8.55;;;;;;;;;;4985353;28;20041;-61
2022/04/11 05:19:15;;;;;;;10.73;7.18;;;;;;;;;;5014096;28;20034;-63
2022/04/11 05:22:01;;;;;;;10.23;7.03;;;;;;;;;;4984796;28;20027;-61
2022/04/11 05:24:46;;;;;;;12.05;7.18;;;;;;;;;;4985402;28;20121;-62
2022/04/11 05:27:31;;;;;;;14.30;7.25;;;;;;;;;;5000507;28;20035;-68
2022/04/11 05:30:17;;;;;;;12.38;7.97;;;;;;;;;;5009482;28;20069;-68
2022/04/11 05:33:02;;;;;;;13.90;7.97;;;;;;;;;;4973203;28;20030;-61
2022/04/11 05:35:47;;;;;;;12.80;8.65;;;;;;;;;;4973412;28;20436;-62
2022/04/11 05:38:33;;;;;;;21.48;7.95;;;;;;;;;;4984661;28;20035;-61
2022/04/11 05:41:18;;;;;;;12.05;6.65;;;;;;;;;;5003607;28;20650;-61
2022/04/11 05:44:03;;;;;;;13.98;7.88;;;;;;;;;;4997732;28;20030;-61
2022/04/11 05:46:52;;;;;;;17.15;7.70;;;;;;;;;;5001480;28;20019;-67
2022/04/11 05:49:39;;;;;;;12.90;9.27;;;;;;;;;;4976131;28;20034;-70
2022/04/11 05:52:24;;;;;;;17.38;9.90;;;;;;;;;;4986366;28;20481;-70
2022/04/11 05:55:09;;;;;;;22.33;11.35;;;;;;;;;;4993012;28;20409;-70
2022/04/11 05:57:55;;;;;;;19.33;11.23;;;;;;;;;;5008395;28;20429;-71
2022/04/11 06:00:40;;;;;;;17.15;10.90;;;;;;;;;;4997643;28;20037;-71
2022/04/11 06:03:25;;;;;;;18.00;10.07;;;;;;;;;;5010104;28;20437;-71
2022/04/11 06:06:10;;;;;;;14.10;9.23;;;;;;;;;;5015724;28;20023;-61
2022/04/11 06:08:56;;;;;;;15.18;9.25;;;;;;;;;;4996709;28;20378;-70
2022/04/11 06:11:41;;;;;;;14.90;8.98;;;;;;;;;;5007169;28;20022;-73
2022/04/11 06:14:26;;;;;;;13.02;8.10;;;;;;;;;;4989779;28;20092;-72
2022/04/11 06:17:11;;;;;;;14.77;8.05;;;;;;;;;;4988899;28;20117;-72
2022/04/11 06:19:57;;;;;;;13.25;8.02;;;;;;;;;;4987868;28;20034;-72
2022/04/11 06:22:42;;;;;;;12.77;7.45;;;;;;;;;;4987214;28;20027;-73
2022/04/11 06:25:28;;;;;;;12.75;7.63;;;;;;;;;;4980867;28;20194;-74
2022/04/11 06:28:13;;;;;;;13.02;8.38;;;;;;;;;;4984587;28;20108;-66
2022/04/11 06:30:58;;;;;;;10.63;6.93;;;;;;;;;;4994970;28;20385;-66
2022/04/11 06:33:43;;;;;;;13.32;8.52;;;;;;;;;;4990001;28;20030;-65
2022/04/11 06:36:28;;;;;;;15.73;7.47;;;;;;;;;;5022338;28;20463;-68
2022/04/11 06:39:14;;;;;;;16.85;8.07;;;;;;;;;;4996481;28;20065;-66
2022/04/11 06:42:00;;;;;;;13.45;6.80;;;;;;;;;;5015895;28;20026;-65
2022/04/11 06:44:45;;;;;;;9.35;5.70;;;;;;;;;;4996164;28;20038;-68
2022/04/11 06:47:31;;;;;;;9.45;6.07;;;;;;;;;;4984178;28;20027;-68
2022/04/11 06:50:16;;;;;;;9.57;5.75;;;;;;;;;;5001035;28;20049;-71
2022/04/11 06:53:01;;;;;;;12.82;6.68;;;;;;;;;;4989892;28;20030;-68
2022/04/11 06:55:47;;;;;;;9.65;5.70;;;;;;;;;;4984096;28;20077;-68
2022/04/11 06:58:32;;;;;;;10.73;6.40;;;;;;;;;;5006587;28;20029;-69
2022/04/11 07:01:17;;;;;;;10.70;6.13;;;;;;;;;;5019530;28;20057;-64
2022/04/11 07:04:03;;;;;;;11.13;5.82;;;;;;;;;;4978481;28;20435;-67
2022/04/11 07:06:48;;;;;;;10.43;5.75;;;;;;;;;;4993099;28;20024;-69
2022/04/11 07:09:33;;;;;;;9.60;5.15;;;;;;;;;;4995339;28;20120;-67
2022/04/11 07:12:18;;;;;;;7.65;5.47;;;;;;;;;;4984960;28;20026;-68
2022/04/11 07:15:04;;;;;;;8.55;5.45;;;;;;;;;;5019911;28;20034;-69
2022/04/11 07:17:50;;;;;;;8.68;5.32;;;;;;;;;;5021951;28;20038;-72
2022/04/11 07:20:35;;;;;;;12.85;5.75;;;;;;;;;;5029738;28;20025;-64
2022/04/11 07:23:21;;;;;;;7.80;4.72;;;;;;;;;;4996753;28;20040;-70
2022/04/11 07:26:06;;;;;;;10.23;6.00;;;;;;;;;;4995521;28;20042;-70
2022/04/11 07:28:52;;;;;;;10.48;4.97;;;;;;;;;;5019170;28;20583;-61
2022/04/11 07:31:37;;;;;;;9.68;5.75;;;;;;;;;;4986217;28;20037;-61
2022/04/11 07:34:22;;;;;;;9.05;4.95;;;;;;;;;;4983347;28;20065;-61
2022/04/11 07:37:07;;;;;;;8.25;4.70;;;;;;;;;;4998469;28;20519;-70
2022/04/11 07:39:53;;;;;;;4.85;3.70;;;;;;;;;;4994154;28;20098;-68
2022/04/11 07:42:38;;;;;;;7.13;4.40;;;;;;;;;;5000851;28;20359;-70
2022/04/11 07:45:23;;;;;;;8.45;3.47;;;;;;;;;;4998398;28;20150;-73
2022/04/11 07:48:09;;;;;;;7.75;3.97;;;;;;;;;;4987315;28;20073;-74
2022/04/11 07:50:54;;;;;;;7.07;3.83;;;;;;;;;;4978821;28;20034;-72
2022/04/11 07:53:39;;;;;;;4.13;3.30;;;;;;;;;;5004342;28;20054;-73
2022/04/11 07:56:24;;;;;;;6.85;4.18;;;;;;;;;;5030097;28;20426;-74
2022/04/11 07:59:10;;;;;;;6.57;4.38;;;;;;;;;;4991099;28;20041;-65
2022/04/11 08:01:55;;;;;;;7.57;3.92;;;;;;;;;;4992964;28;20469;-64
2022/04/11 08:04:40;;;;;;;11.68;5.18;;;;;;;;;;5005100;28;20026;-63
2022/04/11 08:07:25;;;;;;;5.10;3.90;;;;;;;;;;4987940;28;20053;-65
2022/04/11 08:10:11;;;;;;;7.32;3.75;;;;;;;;;;5005917;28;20030;-64
2022/04/11 08:12:57;;;;;;;4.07;3.13;;;;;;;;;;4995232;28;20443;-70
2022/04/11 08:15:43;;;;;;;8.38;3.33;;;;;;;;;;4981828;28;20041;-68
2022/04/11 08:18:28;;;;;;;6.05;3.08;;;;;;;;;;5006245;28;20048;-74
2022/04/11 08:21:13;;;;;;;5.32;2.90;;;;;;;;;;4990820;28;20490;-76
2022/04/11 08:23:58;;;;;;;4.97;3.10;;;;;;;;;;5003394;28;20026;-75
2022/04/11 08:26:44;;;;;;;7.00;3.13;;;;;;;;;;4986235;28;20052;-75
2022/04/11 08:29:29;;;;;;;5.75;3.83;;;;;;;;;;5016344;28;20029;-75
2022/04/11 08:32:14;;;;;;;5.22;3.80;;;;;;;;;;4985121;28;20416;-71
2022/04/11 08:34:59;;;;;;;8.70;3.75;;;;;;;;;;5019704;28;20034;-77
2022/04/11 08:37:45;;;;;;;5.78;3.40;;;;;;;;;;4980746;28;20114;-76
2022/04/11 08:40:31;;;;;;;5.65;3.33;;;;;;;;;;5014997;28;20581;-79
2022/04/11 08:43:18;;;;;;;8.77;3.33;;;;;;;;;;4993124;28;20503;-76
2022/04/11 08:46:03;;;;;;;7.40;3.30;;;;;;;;;;4990273;28;20029;-73
2022/04/11 08:48:49;;;;;;;9.10;3.22;;;;;;;;;;5008456;28;20052;-73
2022/04/11 08:51:35;;;;;;;6.35;3.63;;;;;;;;;;4993881;28;20465;-73
2022/04/11 08:54:20;;;;;;;10.25;3.15;;;;;;;;;;5022044;28;20488;-66
2022/04/11 08:57:06;;;;;;;7.50;3.50;;;;;;;;;;5003755;28;20064;-65
2022/04/11 08:59:51;;;;;;;4.40;3.10;;;;;;;;;;5007623;28;20026;-64
2022/04/11 09:02:36;;;;;;;6.22;3.13;;;;;;;;;;4978816;28;20507;-64
2022/04/11 09:05:23;;;;;;;5.85;3.28;;;;;;;;;;5007928;28;20045;-65
2022/04/11 09:08:08;;;;;;;6.05;3.08;;;;;;;;;;5002347;28;20118;-64
2022/04/11 09:10:57;;;;;;;4.45;2.78;;;;;;;;;;5012273;28;20052;-74
2022/04/11 09:13:47;;;;;;;4.83;2.87;;;;;;;;;;5006409;28;20469;-66
2022/04/11 09:16:32;;;;;;;;;;;;;;;;;;4994998;28;20631;-64
2022/04/11 09:19:24;;;;;;;6.32;3.63;;;;;;;;;;4990438;28;19948;-67
2022/04/11 09:22:09;;;;;;;4.60;2.88;;;;;;;;;;5015831;28;20029;-64
2022/04/11 09:25:07;;;;;;;7.28;2.85;;;;;;;;;;4990813;28;20107;-65
2022/04/11 09:28:06;;;;;;;5.00;2.88;;;;;;;;;;4992103;28;20141;-65
2022/04/11 09:30:51;;;;;;;;;;;;;;;;;;5011822;28;20444;-69
2022/04/11 09:33:38;;;;;;;7.10;3.47;;;;;;;;;;5010120;28;19914;-71
2022/04/11 09:36:24;;;;;;;5.18;2.55;;;;;;;;;;5019659;28;20372;-69
2022/04/11 09:39:09;;;;;;;5.13;2.90;;;;;;;;;;4990533;28;20030;-70
2022/04/11 09:41:54;;;;;;;4.00;2.67;;;;;;;;;;5012371;28;20105;-70
2022/04/11 09:44:39;;;;;;;4.45;2.38;;;;;;;;;;4996610;28;20029;-69
2022/04/11 09:47:25;;;;;;;4.85;2.80;;;;;;;;;;4997275;28;20022;-68
2022/04/11 09:50:11;;;;;;;4.63;1.92;;;;;;;;;;5010261;28;20026;-64
2022/04/11 09:53:26;;;;;;;4.43;2.20;;;;;;;;;;4998269;28;20249;-65
2022/04/11 09:56:11;;;;;;;5.57;2.58;;;;;;;;;;4997545;28;20034;-65
2022/04/11 09:58:57;;;;;;;5.90;2.83;;;;;;;;;;5016704;28;20439;-65
2022/04/11 10:01:44;;;;;;;4.25;2.58;;;;;;;;;;4983989;28;20022;-68
2022/04/11 10:04:29;;;;;;;5.80;2.50;;;;;;;;;;5012144;28;20025;-71
2022/04/11 10:07:14;;;;;;;4.82;2.60;;;;;;;;;;5005402;28;20432;-67
2022/04/11 10:10:01;;;;;;;3.60;1.73;;;;;;;;;;5016111;28;20124;-67
2022/04/11 10:12:46;;;;;;;4.93;2.30;;;;;;;;;;5022976;28;20018;-68
2022/04/11 10:15:32;;;;;;;6.97;2.65;;;;;;;;;;5010024;28;20060;-66
2022/04/11 10:18:19;;;;;;;3.42;2.20;;;;;;;;;;4991997;28;20045;-67
2022/04/11 10:21:05;;;;;;;3.67;2.58;;;;;;;;;;5006977;28;20033;-66
2022/04/11 10:23:51;;;;;;;4.05;2.40;;;;;;;;;;5001881;28;20105;-74
2022/04/11 10:26:52;;;;;;;4.82;2.13;;;;;;;;;;4982062;28;20057;-72
2022/04/11 10:29:38;;;;;;;4.43;2.33;;;;;;;;;;4994813;28;20117;-71
2022/04/11 10:32:24;;;;;;;3.92;2.63;;;;;;;;;;4992331;28;20300;-70
2022/04/11 10:35:09;;;;;;;9.95;3.97;;;;;;;;;;4997563;28;20037;-71
2022/04/11 10:37:57;;;;;;;3.50;2.42;;;;;;;;;;5009766;28;20049;-74
2022/04/11 10:40:47;;;;;;;3.70;1.95;;;;;;;;;;4990991;28;20024;-66
2022/04/11 10:43:32;;;;;;;;;;;;;;;;;;4991091;28;20473;-68
2022/04/11 10:46:17;;;;;;;3.95;2.22;;;;;;;;;;4993816;28;19913;-70
2022/04/11 10:49:05;;;;;;;5.90;2.30;;;;;;;;;;5009007;28;20025;-63
2022/04/11 10:52:09;;;;;;;6.65;2.80;;;;;;;;;;4993434;28;20113;-64
2022/04/11 10:54:55;;;;;;;4.47;2.42;;;;;;;;;;4995877;28;20392;-62
2022/04/11 10:57:42;;;;;;;5.68;2.20;;;;;;;;;;5020312;28;20468;-64
2022/04/11 11:00:28;;;;;;;6.03;2.47;;;;;;;;;;4989563;28;20505;-61
2022/04/11 11:03:13;;;;;;;3.70;2.13;;;;;;;;;;5001635;28;20109;-65
2022/04/11 11:06:14;;;;;;;3.78;2.10;;;;;;;;;;5021779;28;20421;-64
2022/04/11 11:09:13;;;;;;;3.63;2.17;;;;;;;;;;5013565;28;20037;-65
2022/04/11 11:12:18;;;;;;;3.90;2.00;;;;;;;;;;5007970;28;20477;-66
2022/04/11 11:15:22;;;;;;;4.43;2.38;;;;;;;;;;5008267;28;20301;-65
2022/04/11 11:18:07;;;;;;;5.93;2.08;;;;;;;;;;5019105;28;20316;-59
2022/04/11 11:20:54;;;;;;;3.63;2.00;;;;;;;;;;5009005;28;20116;-62
2022/04/11 11:23:40;;;;;;;4.65;2.67;;;;;;;;;;5020171;28;20022;-63
2022/04/11 11:26:29;;;;;;;4.10;2.30;;;;;;;;;;4979716;28;20054;-63
2022/04/11 11:29:15;;;;;;;4.70;2.50;;;;;;;;;;5000310;28;20129;-63
2022/04/11 11:32:04;;;;;;;3.58;2.55;;;;;;;;;;5007777;28;20060;-62
2022/04/11 11:34:50;;;;;;;4.82;2.60;;;;;;;;;;4994592;28;20026;-64
2022/04/11 11:37:35;;;;;;;3.70;2.47;;;;;;;;;;5017147;28;20117;-66
2022/04/11 11:40:21;;;;;;;6.72;2.55;;;;;;;;;;5008931;28;20030;-65
2022/04/11 11:43:11;;;;;;;4.03;2.05;;;;;;;;;;5006038;28;20505;-68
2022/04/11 11:46:03;;;;;;;5.70;2.75;;;;;;;;;;4995488;28;20346;-66
2022/04/11 11:48:48;;;;;;;4.95;2.30;;;;;;;;;;4992365;28;20029;-66
2022/04/11 11:51:34;;;;;;;3.75;2.67;;;;;;;;;;5012876;28;20072;-65
2022/04/11 11:54:33;;;;;;;6.07;3.20;;;;;;;;;;4995571;28;20034;-70
2022/04/11 11:57:19;;;;;;;3.28;2.42;;;;;;;;;;4994058;28;20034;-70
2022/04/11 12:00:06;;;;;;;2.75;2.13;;;;;;;;;;5007381;28;20062;-68
2022/04/11 12:05:58;;;;;;;3.97;2.45;;;;;;;;;;5003444;28;20026;-68
2022/04/11 12:08:53;;;;;;;5.10;2.60;;;;;;;;;;4991836;28;20448;-67
2022/04/11 12:11:38;;;;;;;3.65;2.50;;;;;;;;;;5031207;28;20419;-66
2022/04/11 12:14:23;;;;;;;5.93;2.33;;;;;;;;;;5006682;28;20018;-66
2022/04/11 12:17:08;;;;;;;3.67;2.15;;;;;;;;;;5007425;28;20079;-64
2022/04/11 12:20:04;;;;;;;5.00;2.80;;;;;;;;;;4990358;28;20484;-62
2022/04/11 12:22:59;;;;;;;4.93;2.63;;;;;;;;;;5008030;28;20037;-64
2022/04/11 12:25:48;;;;;;;4.78;2.67;;;;;;;;;;5005631;28;20042;-64
2022/04/11 12:28:34;;;;;;;5.63;2.00;;;;;;;;;;5020474;28;20022;-63
2022/04/11 12:31:19;;;;;;;3.90;2.42;;;;;;;;;;4982706;28;20121;-63
2022/04/11 12:34:11;;;;;;;3.80;2.60;;;;;;;;;;5007500;28;20034;-70
2022/04/11 12:37:02;;;;;;;5.25;2.45;;;;;;;;;;5007168;28;20396;-70
2022/04/11 12:39:57;;;;;;;3.17;2.22;;;;;;;;;;5006221;28;20026;-67
2022/04/11 12:42:43;;;;;;;4.40;2.47;;;;;;;;;;4993625;28;20385;-71
2022/04/11 12:45:28;;;;;;;4.47;2.08;;;;;;;;;;4991557;28;20022;-70
2022/04/11 12:48:13;;;;;;;4.43;2.65;;;;;;;;;;5021286;28;20444;-69
2022/04/11 12:51:09;;;;;;;2.88;2.03;;;;;;;;;;5005780;28;20065;-62
2022/04/11 12:54:07;;;;;;;3.63;2.40;;;;;;;;;;5014416;28;20036;-64
2022/04/11 12:56:53;;;;;;;6.68;2.75;;;;;;;;;;5019917;28;20101;-66
2022/04/11 12:59:40;;;;;;;6.13;2.85;;;;;;;;;;5012498;28;20420;-59
2022/04/11 13:02:26;;;;;;;3.13;2.20;;;;;;;;;;4976823;28;21561;-65
2022/04/11 13:05:15;;;;;;;3.50;2.30;;;;;;;;;;4993518;28;20038;-64
2022/04/11 13:08:01;;;;;;;4.07;2.58;;;;;;;;;;4991479;28;20473;-77
2022/04/11 13:10:46;;;;;;;4.93;2.75;;;;;;;;;;4987422;28;20034;-69
2022/04/11 13:13:32;;;;;;;9.48;2.60;;;;;;;;;;4992365;28;20030;-70
2022/04/11 13:19:22;;;;;;;3.63;2.72;;;;;;;;;;4987016;28;20065;-69
2022/04/11 13:22:08;;;;;;;3.38;2.60;;;;;;;;;;4990545;28;20121;-69
2022/04/11 13:24:55;;;;;;;5.47;3.00;;;;;;;;;;5004754;28;20037;-70
2022/04/11 13:27:40;;;;;;;7.25;2.75;;;;;;;;;;5005899;28;20100;-67
2022/04/11 13:30:26;;;;;;;5.65;3.05;;;;;;;;;;4994741;28;20070;-75
2022/04/11 13:33:11;;;;;;;5.95;3.00;;;;;;;;;;5008407;28;20105;-76
2022/04/11 13:35:59;;;;;;;4.18;2.88;;;;;;;;;;5022069;28;20029;-79
2022/04/11 13:38:44;;;;;;;4.85;2.88;;;;;;;;;;5019804;28;20036;-79
2022/04/11 13:41:30;;;;;;;3.08;2.40;;;;;;;;;;4996029;28;20164;-79
2022/04/11 13:44:16;;;;;;;4.65;2.80;;;;;;;;;;4991785;28;20104;-71
2022/04/11 13:47:02;;;;;;;7.32;2.90;;;;;;;;;;4993684;28;20029;-70
2022/04/11 13:49:47;;;;;;;5.15;3.03;;;;;;;;;;5021109;28;20032;-78
2022/04/11 13:52:32;;;;;;;5.50;2.53;;;;;;;;;;4994707;28;20041;-78
2022/04/11 13:55:17;;;;;;;6.63;3.08;;;;;;;;;;4993453;28;20030;-78
2022/04/11 13:58:02;;;;;;;8.85;4.07;;;;;;;;;;4973652;28;20182;-77
2022/04/11 14:00:48;;;;;;;4.53;2.90;;;;;;;;;;5006380;28;20050;-78
2022/04/11 14:03:33;;;;;;;4.80;2.63;;;;;;;;;;4988717;28;20481;-67
2022/04/11 14:06:19;;;;;;;5.00;2.90;;;;;;;;;;4992941;28;20420;-68
2022/04/11 14:09:05;;;;;;;4.97;2.97;;;;;;;;;;4973767;28;20037;-68
2022/04/11 14:11:51;;;;;;;6.30;2.78;;;;;;;;;;4990432;28;20492;-68
2022/04/11 14:14:36;;;;;;;7.22;3.05;;;;;;;;;;4991564;28;20037;-68
2022/04/11 14:17:21;;;;;;;7.32;2.95;;;;;;;;;;4996864;28;20121;-71
2022/04/11 14:20:08;;;;;;;4.85;3.30;;;;;;;;;;5023022;28;20026;-68
2022/04/11 14:22:53;;;;;;;3.88;2.90;;;;;;;;;;5024809;28;20037;-65
2022/04/11 14:25:38;;;;;;;3.78;2.75;;;;;;;;;;4982329;28;20057;-69
2022/04/11 14:28:23;;;;;;;5.93;2.90;;;;;;;;;;5005809;28;20457;-69
2022/04/11 14:31:09;;;;;;;3.17;2.65;;;;;;;;;;5022886;28;20017;-70
2022/04/11 14:33:55;;;;;;;4.55;2.95;;;;;;;;;;5000371;28;20075;-73
2022/04/11 14:36:40;;;;;;;4.10;2.85;;;;;;;;;;5024467;28;20063;-70
2022/04/11 14:39:27;;;;;;;9.20;3.15;;;;;;;;;;4994632;28;20030;-71
2022/04/11 14:42:13;;;;;;;5.20;2.85;;;;;;;;;;5024898;28;20026;-70
2022/04/11 14:44:58;;;;;;;5.15;3.10;;;;;;;;;;5018738;28;20039;-69
2022/04/11 14:47:43;;;;;;;4.65;3.00;;;;;;;;;;5015426;28;20030;-71
2022/04/11 14:50:29;;;;;;;6.80;3.90;;;;;;;;;;4975213;28;20130;-71
2022/04/11 14:53:14;;;;;;;5.32;3.13;;;;;;;;;;5012411;28;20055;-70
2022/04/11 14:56:00;;;;;;;4.30;3.45;;;;;;;;;;4994466;28;20046;-70
2022/04/11 14:58:45;;;;;;;4.72;3.35;;;;;;;;;;4981872;28;20072;-77
2022/04/11 15:01:30;;;;;;;5.65;3.45;;;;;;;;;;5009152;28;20370;-76
2022/04/11 15:04:16;;;;;;;5.30;2.60;;;;;;;;;;4996063;28;20117;-77
2022/04/11 15:07:01;;;;;;;3.90;2.70;;;;;;;;;;4990325;28;20029;-77
2022/04/11 15:09:47;;;;;;;5.38;3.45;;;;;;;;;;5023361;28;20021;-78
2022/04/11 15:12:32;;;;;;;6.57;3.50;;;;;;;;;;5009047;28;20118;-79
2022/04/11 15:15:17;;;;;;;5.28;3.58;;;;;;;;;;4977802;28;20377;-81
2022/04/11 15:18:03;;;;;;;6.55;3.13;;;;;;;;;;5022204;28;20042;-68
2022/04/11 15:20:48;;;;;;;6.55;3.60;;;;;;;;;;4991604;28;20073;-63
2022/04/11 15:23:33;;;;;;;5.65;3.08;;;;;;;;;;4995688;28;20063;-64
2022/04/11 15:26:19;;;;;;;5.55;3.55;;;;;;;;;;5005058;28;20050;-64
2022/04/11 15:29:04;;;;;;;5.10;3.20;;;;;;;;;;4993299;28;20069;-65
2022/04/11 15:31:50;;;;;;;7.65;3.25;;;;;;;;;;4994008;28;20117;-64
2022/04/11 15:34:35;;;;;;;7.78;3.10;;;;;;;;;;4995419;28;20034;-65
2022/04/11 15:37:20;;;;;;;4.38;2.88;;;;;;;;;;5021220;28;20090;-82
2022/04/11 15:40:06;;;;;;;4.65;2.65;;;;;;;;;;4993899;28;20432;-67
2022/04/11 15:42:52;;;;;;;5.10;3.17;;;;;;;;;;5007232;28;20029;-65
2022/04/11 15:45:37;;;;;;;4.97;3.20;;;;;;;;;;4974291;28;20473;-64
2022/04/11 15:48:23;;;;;;;3.75;2.72;;;;;;;;;;4994063;28;20507;-65
2022/04/11 15:51:08;;;;;;;6.15;3.40;;;;;;;;;;4993660;28;20046;-67
2022/04/11 15:53:53;;;;;;;5.68;3.50;;;;;;;;;;5020774;28;20038;-63
2022/04/11 15:56:38;;;;;;;8.95;3.80;;;;;;;;;;5008922;28;20481;-67
2022/04/11 15:59:24;;;;;;;6.10;3.88;;;;;;;;;;4987745;28;20092;-69
2022/04/11 16:02:11;;;;;;;6.47;4.00;;;;;;;;;;4989375;28;20046;-68
2022/04/11 16:04:57;;;;;;;5.40;3.90;;;;;;;;;;4995290;28;20038;-71
2022/04/11 16:07:42;;;;;;;7.57;4.03;;;;;;;;;;4990719;28;20551;-69
2022/04/11 16:10:27;;;;;;;5.65;3.88;;;;;;;;;;4995687;28;20080;-68
2022/04/11 16:13:12;;;;;;;7.22;4.28;;;;;;;;;;4993728;28;20461;-66
2022/04/11 16:15:57;;;;;;;6.30;3.88;;;;;;;;;;4994082;28;20033;-67
2022/04/11 16:18:43;;;;;;;6.93;3.53;;;;;;;;;;4992549;28;20036;-67
2022/04/11 16:21:29;;;;;;;5.90;3.70;;;;;;;;;;4994118;28;20068;-65
2022/04/11 16:24:14;;;;;;;4.55;3.45;;;;;;;;;;5006778;28;20041;-66
2022/04/11 16:27:00;;;;;;;5.03;3.63;;;;;;;;;;5007882;28;20060;-65
2022/04/11 16:29:45;;;;;;;3.85;2.80;;;;;;;;;;4993671;28;20153;-64
2022/04/11 16:32:31;;;;;;;6.55;3.22;;;;;;;;;;5031151;28;20555;-68
2022/04/11 16:35:16;;;;;;;5.05;3.63;;;;;;;;;;4993305;28;20110;-72
2022/04/11 16:38:01;;;;;;;4.72;3.35;;;;;;;;;;4993576;28;20485;-72